Time;durP1;ratioP1;P1;durP2;ratioP2;P2;SDS_P1;SDS_P2;PMS_P1;PMS_P2;Temp;Humidity;BMP_temperature;BMP_pressure;BME280_temperature;BME280_humidity;BME280_pressure;Samples;Min_cycle;Max_cycle;Signal;HPM_P1;HPM_P2
2024/02/09 00:00:10;;;;;;;31.40;12.88;;;;;;;8.76;100.00;98663.16;5101543;28;20036;-75
2024/02/09 00:02:36;;;;;;;29.90;12.65;;;;;;;8.77;100.00;98657.88;5103847;28;20394;-77
2024/02/09 00:05:02;;;;;;;29.02;12.90;;;;;;;8.76;100.00;98664.03;5102317;28;20023;-73
2024/02/09 00:07:28;;;;;;;29.23;12.38;;;;;;;8.77;100.00;98657.88;5103600;28;20061;-75
2024/02/09 00:09:53;;;;;;;29.23;12.35;;;;;;;8.77;100.00;98657.00;5100720;28;20517;-75
2024/02/09 00:12:20;;;;;;;30.85;13.00;;;;;;;8.76;100.00;98645.59;5103428;28;20023;-77
2024/02/09 00:14:47;;;;;;;28.27;12.02;;;;;;;8.78;100.00;98649.06;5108956;27;20175;-77
2024/02/09 00:17:13;;;;;;;29.63;12.10;;;;;;;8.79;100.00;98642.88;5104818;28;20024;-76
2024/02/09 00:19:39;;;;;;;29.00;12.55;;;;;;;8.76;100.00;98642.09;5102320;28;20032;-77
2024/02/09 00:22:04;;;;;;;29.10;11.85;;;;;;;8.77;100.00;98631.53;5104624;28;20030;-77
2024/02/09 00:24:31;;;;;;;30.00;12.18;;;;;;;8.77;100.00;98617.50;5101336;28;20028;-76
2024/02/09 00:27:00;;;;;;;28.85;11.93;;;;;;;8.80;100.00;98609.50;5101248;28;20024;-77
2024/02/09 00:29:25;;;;;;;31.35;13.27;;;;;;;8.78;100.00;98616.56;5104632;28;20016;-76
2024/02/09 00:31:52;;;;;;;29.02;12.77;;;;;;;8.79;100.00;98597.25;5101749;28;20084;-76
2024/02/09 00:34:18;;;;;;;32.65;13.93;;;;;;;8.76;100.00;98600.81;5103376;28;20107;-76
2024/02/09 00:36:44;;;;;;;30.50;14.15;;;;;;;8.76;100.00;98602.59;5103060;28;20487;-76
2024/02/09 00:39:10;;;;;;;29.85;13.15;;;;;;;8.74;100.00;98592.09;5102139;28;20070;-72
2024/02/09 00:41:35;;;;;;;30.33;13.18;;;;;;;8.76;100.00;98602.59;5104075;28;20058;-72
2024/02/09 00:44:00;;;;;;;32.05;12.95;;;;;;;8.79;100.00;98587.56;5101153;28;20079;-72
2024/02/09 00:46:28;;;;;;;28.77;11.70;;;;;;;8.77;100.00;98585.88;5085205;28;20035;-72
2024/02/09 00:48:53;;;;;;;27.20;11.32;;;;;;;8.78;100.00;98582.31;5100976;28;20033;-72
2024/02/09 00:51:18;;;;;;;27.52;10.68;;;;;;;8.76;100.00;98584.16;5104147;28;20367;-72
2024/02/09 00:53:48;;;;;;;27.75;10.70;;;;;;;8.75;100.00;98580.63;5102899;28;20032;-71
2024/02/09 00:56:14;;;;;;;29.10;10.90;;;;;;;8.76;100.00;98563.06;5101180;28;20039;-71
2024/02/09 00:58:39;;;;;;;28.58;10.95;;;;;;;8.77;100.00;98570.09;5103485;28;20028;-72
2024/02/09 01:01:09;;;;;;;28.73;10.40;;;;;;;8.76;100.00;98560.44;5106230;28;20106;-71
2024/02/09 01:03:36;;;;;;;28.77;10.55;;;;;;;8.76;100.00;98550.75;5106706;28;20138;-72
2024/02/09 01:06:04;;;;;;;28.05;10.38;;;;;;;8.75;100.00;98550.78;5104740;28;20081;-72
2024/02/09 01:08:29;;;;;;;27.52;10.30;;;;;;;8.75;100.00;98546.38;5088623;28;20460;-71
2024/02/09 01:10:55;;;;;;;29.20;10.52;;;;;;;8.72;100.00;98544.72;5105813;28;20032;-71
2024/02/09 02:46:15;;;;;;;25.02;8.98;;;;;;;8.64;100.00;98412.34;5103517;28;22421;-77
2024/02/09 03:05:15;;;;;;;23.70;8.88;;;;;;;8.62;100.00;98386.94;5103513;28;20548;-78
2024/02/09 03:07:41;;;;;;;25.40;9.20;;;;;;;8.65;100.00;98385.09;5106193;28;20118;-78
2024/02/09 03:10:08;;;;;;;24.42;9.55;;;;;;;8.63;100.00;98394.78;5084445;28;20024;-77
2024/02/09 03:12:33;;;;;;;25.50;9.20;;;;;;;8.63;100.00;98384.25;5105836;28;20039;-78
2024/02/09 03:14:59;;;;;;;24.42;8.93;;;;;;;8.67;100.00;98385.91;5103664;28;20406;-77
2024/02/09 03:17:26;;;;;;;23.60;8.85;;;;;;;8.63;100.00;98373.72;5104384;28;20032;-78
2024/02/09 03:19:51;;;;;;;24.63;8.98;;;;;;;8.65;100.00;98368.41;5104905;28;20031;-75
2024/02/09 03:22:17;;;;;;;24.15;8.68;;;;;;;8.65;100.00;98382.47;5102090;28;20039;-77
2024/02/09 03:24:42;;;;;;;23.92;8.30;;;;;;;8.67;100.00;98364.00;5105890;28;20471;-71
2024/02/09 03:27:08;;;;;;;23.77;8.40;;;;;;;8.68;100.00;98371.84;5102559;28;20102;-72
2024/02/09 03:29:33;;;;;;;21.95;8.05;;;;;;;8.67;100.00;98364.00;5105089;28;20516;-72
2024/02/09 03:31:59;;;;;;;22.00;8.32;;;;;;;8.64;100.00;98359.66;5085425;28;20475;-72
2024/02/09 03:34:25;;;;;;;22.35;8.27;;;;;;;8.63;100.00;98352.66;5103660;28;20078;-71
2024/02/09 03:36:54;;;;;;;21.08;7.50;;;;;;;8.69;100.00;98344.59;5104452;28;20024;-72
2024/02/09 03:39:19;;;;;;;21.63;8.00;;;;;;;8.67;100.00;98340.28;5085586;28;20032;-72
2024/02/09 03:41:45;;;;;;;20.45;7.57;;;;;;;8.68;100.00;98344.66;5105114;28;20454;-72
2024/02/09 03:44:10;;;;;;;22.27;7.88;;;;;;;8.67;100.00;98348.19;5101981;28;20040;-72
2024/02/09 03:46:36;;;;;;;21.83;8.20;;;;;;;8.67;100.00;98342.91;5105272;28;20030;-71
2024/02/09 03:49:01;;;;;;;23.25;8.38;;;;;;;8.65;100.00;98345.59;5102726;28;20027;-71
2024/02/09 03:51:27;;;;;;;21.15;8.20;;;;;;;8.65;100.00;98334.19;5103786;28;20024;-72
2024/02/09 03:53:52;;;;;;;23.15;8.18;;;;;;;8.67;100.00;98341.13;5104097;28;20070;-71
2024/02/09 03:56:17;;;;;;;21.98;7.68;;;;;;;8.69;100.00;98330.56;5102320;28;20032;-71
2024/02/09 03:58:45;;;;;;;21.30;7.55;;;;;;;8.66;100.00;98334.13;5105453;28;20047;-71
2024/02/09 04:01:10;;;;;;;20.15;7.63;;;;;;;8.64;100.00;98337.75;5083635;28;20077;-71
2024/02/09 04:03:36;;;;;;;20.38;6.90;;;;;;;8.67;100.00;98338.50;5104838;28;20036;-72
2024/02/09 04:06:03;;;;;;;20.25;7.70;;;;;;;8.62;100.00;98340.41;5084306;28;20028;-72
2024/02/09 04:08:28;;;;;;;21.05;7.28;;;;;;;8.65;100.00;98337.69;5085543;28;20074;-72
2024/02/09 04:10:53;;;;;;;22.33;7.88;;;;;;;8.61;100.00;98333.41;5103459;28;20051;-72
2024/02/09 04:13:19;;;;;;;20.67;7.30;;;;;;;8.64;100.00;98335.09;5102183;28;20153;-73
2024/02/09 04:15:46;;;;;;;21.15;7.45;;;;;;;8.64;100.00;98327.19;5086810;28;20043;-76
2024/02/09 04:18:11;;;;;;;19.42;7.43;;;;;;;8.63;100.00;98328.09;5101424;28;20034;-78
2024/02/09 04:20:37;;;;;;;20.30;7.10;;;;;;;8.63;100.00;98315.78;5104886;28;20024;-79
2024/02/09 04:23:03;;;;;;;21.70;7.70;;;;;;;8.63;100.00;98326.31;5102523;28;20963;-78
2024/02/09 04:25:28;;;;;;;20.27;6.78;;;;;;;8.62;100.00;98321.09;5103347;28;20032;-72
2024/02/09 04:27:54;;;;;;;20.42;7.35;;;;;;;8.62;100.00;98321.09;5103401;28;20137;-79
2024/02/09 04:30:21;;;;;;;19.77;7.40;;;;;;;8.60;100.00;98321.13;5072864;28;20070;-78
2024/02/09 04:32:47;;;;;;;21.70;7.57;;;;;;;8.61;100.00;98320.25;5104045;28;20035;-79
2024/02/09 04:35:14;;;;;;;20.15;7.32;;;;;;;8.57;100.00;98326.50;5101524;28;20058;-77
2024/02/09 04:37:39;;;;;;;21.48;7.35;;;;;;;8.60;100.00;98320.28;5101087;28;20031;-79
2024/02/09 04:40:06;;;;;;;20.23;7.10;;;;;;;8.57;100.00;98330.91;5104072;28;20031;-78
2024/02/09 04:42:32;;;;;;;20.50;6.88;;;;;;;8.57;100.00;98326.50;5102154;28;20020;-76
2024/02/09 04:44:57;;;;;;;20.67;7.15;;;;;;;8.55;100.00;98323.06;5103234;28;20036;-79
2024/02/09 04:47:22;;;;;;;19.45;6.40;;;;;;;8.60;100.00;98315.03;5103169;28;20031;-78
2024/02/09 04:49:49;;;;;;;19.15;6.65;;;;;;;8.54;100.00;98316.91;5101866;28;20032;-79
2024/02/09 04:52:15;;;;;;;20.75;7.20;;;;;;;8.53;100.00;98314.31;5104142;28;20028;-71
2024/02/09 04:54:40;;;;;;;20.35;6.72;;;;;;;8.51;100.00;98305.59;5100899;28;20039;-72
2024/02/09 04:57:08;;;;;;;20.92;7.00;;;;;;;8.49;100.00;98303.03;5104140;28;20030;-71
2024/02/09 04:59:33;;;;;;;19.52;6.03;;;;;;;8.52;100.00;98300.28;5101615;28;20024;-71
2024/02/09 05:01:59;;;;;;;20.67;6.47;;;;;;;8.51;100.00;98311.72;5102978;28;20032;-71
2024/02/09 05:04:24;;;;;;;19.70;6.40;;;;;;;8.50;100.00;98299.50;5103082;28;20471;-71
2024/02/09 05:06:52;;;;;;;19.08;6.55;;;;;;;8.53;100.00;98298.50;5101617;28;20032;-72
2024/02/09 05:09:23;;;;;;;20.13;6.38;;;;;;;8.52;100.00;98295.03;5103653;28;20331;-71
2024/02/09 05:11:49;;;;;;;21.02;6.60;;;;;;;8.53;100.00;98294.13;5101544;28;20032;-71
2024/02/09 05:14:15;;;;;;;19.70;6.50;;;;;;;8.55;100.00;98291.47;5104048;28;20052;-71
2024/02/09 05:16:40;;;;;;;22.02;6.70;;;;;;;8.58;100.00;98295.75;5100804;28;20028;-72
2024/02/09 05:19:12;;;;;;;19.55;6.75;;;;;;;8.55;100.00;98296.72;5103967;28;20034;-71
2024/02/09 05:21:39;;;;;;;19.80;6.70;;;;;;;8.59;100.00;98290.47;5101084;28;20121;-72
2024/02/09 05:24:04;;;;;;;20.23;6.65;;;;;;;8.60;100.00;98279.00;5103479;28;20038;-71
2024/02/09 05:26:30;;;;;;;20.15;6.30;;;;;;;8.58;100.00;98287.84;5069308;28;20020;-71
2024/02/09 05:28:56;;;;;;;20.55;6.68;;;;;;;8.60;100.00;98279.00;5102335;28;20317;-72
2024/02/09 05:31:25;;;;;;;18.15;5.95;;;;;;;8.59;100.00;98276.41;5101794;28;20066;-72
2024/02/09 05:33:51;;;;;;;19.88;6.35;;;;;;;8.58;100.00;98272.94;5103205;28;20028;-72
2024/02/09 05:36:20;;;;;;;19.05;6.40;;;;;;;8.54;100.00;98268.66;5100934;28;20592;-71
2024/02/09 05:38:47;;;;;;;20.60;6.35;;;;;;;8.53;100.00;98267.81;5103801;28;20028;-71
2024/02/09 05:41:14;;;;;;;19.38;6.07;;;;;;;8.56;100.00;98272.09;5100771;28;20500;-71
2024/02/09 05:43:40;;;;;;;18.15;5.97;;;;;;;8.55;100.00;98271.25;5100388;28;20031;-72
2024/02/09 05:46:05;;;;;;;19.02;6.28;;;;;;;8.55;100.00;98273.03;5105117;28;20157;-77
2024/02/09 05:48:30;;;;;;;19.27;6.25;;;;;;;8.54;100.00;98268.66;5105573;28;20456;-76
2024/02/09 05:50:56;;;;;;;17.88;5.90;;;;;;;8.52;100.00;98265.22;5106063;28;20021;-73
2024/02/09 05:53:21;;;;;;;18.70;5.60;;;;;;;8.55;100.00;98268.59;5088349;28;20039;-73
2024/02/09 05:55:46;;;;;;;18.98;5.63;;;;;;;8.50;100.00;98273.16;5104818;28;20103;-75
2024/02/09 05:58:12;;;;;;;18.30;5.60;;;;;;;8.50;100.00;98275.78;5107498;28;20035;-77
2024/02/09 06:00:38;;;;;;;18.27;5.60;;;;;;;8.49;100.00;98275.81;5104333;28;20024;-76
2024/02/09 06:03:06;;;;;;;19.38;5.70;;;;;;;8.50;100.00;98273.16;5106979;28;20115;-76
2024/02/09 06:05:32;;;;;;;19.25;5.60;;;;;;;8.49;100.00;98265.28;5104910;28;20031;-77
2024/02/09 06:08:00;;;;;;;18.35;5.45;;;;;;;8.39;100.00;98259.41;5105579;28;20052;-76
2024/02/09 06:10:26;;;;;;;19.33;5.53;;;;;;;8.43;100.00;98254.88;5105881;28;20024;-77
2024/02/09 06:12:52;;;;;;;18.08;5.40;;;;;;;8.47;100.00;98273.22;5104706;28;20032;-77
2024/02/09 06:15:17;;;;;;;18.33;5.50;;;;;;;8.46;100.00;98260.97;5088474;28;20096;-77
2024/02/09 06:17:42;;;;;;;18.05;5.35;;;;;;;8.43;100.00;98260.16;5104199;28;20043;-77
2024/02/09 06:20:08;;;;;;;19.48;5.82;;;;;;;8.44;100.00;98265.41;5106858;28;20448;-77
2024/02/09 06:22:35;;;;;;;19.80;5.57;;;;;;;8.48;100.00;98268.84;5086160;28;20051;-76
2024/02/09 06:25:01;;;;;;;19.27;5.82;;;;;;;8.47;100.00;98264.47;5105957;28;20074;-77
2024/02/09 06:27:27;;;;;;;19.23;5.70;;;;;;;8.47;100.00;98261.84;5105360;28;20020;-77
2024/02/09 06:29:54;;;;;;;17.52;5.78;;;;;;;8.47;100.00;98262.69;5104473;28;20035;-72
2024/02/09 06:32:22;;;;;;;17.95;5.50;;;;;;;8.52;100.00;98254.69;5106316;28;20068;-77
2024/02/09 06:34:48;;;;;;;18.58;5.30;;;;;;;8.55;100.00;98271.25;5104093;28;20035;-72
2024/02/09 06:37:17;;;;;;;18.25;5.30;;;;;;;8.56;100.00;98261.56;5106865;28;20035;-72
2024/02/09 06:39:42;;;;;;;20.58;6.13;;;;;;;8.52;100.00;98270.47;5103562;28;20035;-72
2024/02/09 06:42:07;;;;;;;18.23;5.85;;;;;;;8.51;100.00;98269.59;5106371;28;20024;-72
2024/02/09 06:44:34;;;;;;;19.25;5.82;;;;;;;8.52;100.00;98266.06;5104162;28;20055;-71
2024/02/09 06:47:00;;;;;;;20.60;6.18;;;;;;;8.55;100.00;98260.72;5105210;28;20063;-72
2024/02/09 06:49:28;;;;;;;20.08;5.63;;;;;;;8.56;100.00;98264.19;5105106;28;20055;-72
2024/02/09 06:51:53;;;;;;;19.55;5.93;;;;;;;8.56;100.00;98256.28;5104097;28;20085;-72
2024/02/09 06:54:18;;;;;;;18.77;5.80;;;;;;;8.59;100.00;98261.50;5106216;28;20078;-72
2024/02/09 06:56:44;;;;;;;19.20;5.85;;;;;;;8.60;100.00;98268.47;5102873;28;20472;-71
2024/02/09 06:59:10;;;;;;;20.40;6.20;;;;;;;8.60;100.00;98263.22;5106305;28;20057;-72
2024/02/09 07:01:39;;;;;;;19.63;5.97;;;;;;;8.62;100.00;98256.16;5085422;28;20032;-71
2024/02/09 07:04:07;;;;;;;20.30;6.28;;;;;;;8.63;100.00;98257.84;5105483;28;20040;-71
2024/02/09 07:06:32;;;;;;;21.85;6.25;;;;;;;8.70;100.00;98267.28;5103615;28;20047;-71
2024/02/09 07:08:58;;;;;;;20.55;5.97;;;;;;;8.66;100.00;98259.53;5104647;28;20032;-72
2024/02/09 07:11:24;;;;;;;18.00;5.75;;;;;;;8.67;100.00;98258.63;5104828;28;20467;-72
2024/02/09 07:13:50;;;;;;;20.00;6.18;;;;;;;8.67;100.00;98254.22;5103365;28;20059;-72
2024/02/09 07:16:15;;;;;;;19.50;5.90;;;;;;;8.70;100.00;98258.53;5105821;28;20082;-72
2024/02/09 07:18:42;;;;;;;20.27;5.95;;;;;;;8.71;100.00;98265.56;5102400;28;20060;-72
2024/02/09 07:21:09;;;;;;;19.83;6.15;;;;;;;8.71;100.00;98258.50;5078869;28;20063;-72
2024/02/09 07:23:36;;;;;;;18.92;5.93;;;;;;;8.71;100.00;98268.19;5102920;28;20468;-72
2024/02/09 07:26:02;;;;;;;19.60;6.22;;;;;;;8.71;100.00;98258.50;5104576;28;20023;-72
2024/02/09 07:28:28;;;;;;;20.77;6.18;;;;;;;8.73;100.00;98261.09;5104242;28;20027;-72
2024/02/09 07:30:55;;;;;;;19.60;6.28;;;;;;;8.75;100.00;98267.16;5103160;28;20394;-77
2024/02/09 07:33:21;;;;;;;21.58;6.85;;;;;;;8.75;100.00;98272.44;5104881;28;20495;-76
2024/02/09 07:35:47;;;;;;;20.67;6.28;;;;;;;8.75;100.00;98268.94;5102387;28;20158;-77
2024/02/09 07:38:12;;;;;;;19.33;5.80;;;;;;;8.75;100.00;98267.16;5087533;28;20024;-77
2024/02/09 07:40:38;;;;;;;22.08;6.60;;;;;;;8.76;100.00;98258.34;5102373;28;20046;-76
2024/02/09 07:43:04;;;;;;;20.38;6.43;;;;;;;8.78;100.00;98274.13;5104543;28;20111;-76
2024/02/09 07:45:30;;;;;;;21.55;6.30;;;;;;;8.81;100.00;98274.03;5103452;28;20493;-76
2024/02/09 07:47:58;;;;;;;20.52;6.40;;;;;;;8.81;100.00;98277.53;5103180;28;20110;-76
2024/02/09 07:50:24;;;;;;;21.95;6.63;;;;;;;8.86;100.00;98275.63;5087004;28;20101;-76
2024/02/09 07:52:49;;;;;;;20.08;6.35;;;;;;;8.87;100.00;98265.97;5102164;28;20043;-77
2024/02/09 07:55:14;;;;;;;19.80;6.40;;;;;;;8.87;100.00;98282.63;5105231;28;20156;-76
2024/02/09 07:57:41;;;;;;;20.90;6.18;;;;;;;8.90;100.00;98289.59;5102313;28;20459;-76
2024/02/09 08:00:09;;;;;;;19.60;6.15;;;;;;;8.92;100.00;98279.84;5104531;28;20500;-76
2024/02/09 08:02:35;;;;;;;20.02;6.15;;;;;;;8.93;100.00;98288.59;5102482;28;20036;-75
2024/02/09 08:05:08;;;;;;;20.58;6.38;;;;;;;8.96;100.00;98286.75;5103885;28;20048;-76
2024/02/09 08:07:35;;;;;;;21.02;6.15;;;;;;;8.99;100.00;98278.75;5084291;28;20024;-74
2024/02/09 08:10:03;;;;;;;19.42;6.20;;;;;;;8.96;100.00;98283.28;5103192;28;20067;-76
2024/02/09 08:12:28;;;;;;;19.77;6.13;;;;;;;8.97;100.00;98277.94;5103385;28;20097;-77
2024/02/09 08:14:53;;;;;;;24.67;6.97;;;;;;;8.97;100.00;98277.94;5102536;28;20494;-76
2024/02/09 08:17:19;;;;;;;20.30;6.22;;;;;;;8.97;100.00;98287.59;5104535;28;20078;-72
2024/02/09 08:19:44;;;;;;;21.20;6.55;;;;;;;8.98;100.00;98286.72;5101607;28;20031;-72
2024/02/09 08:22:10;;;;;;;20.30;6.35;;;;;;;9.03;100.00;98292.72;5104646;28;20027;-71
2024/02/09 08:24:35;;;;;;;20.23;6.40;;;;;;;9.03;100.00;98283.03;5102292;28;20046;-72
2024/02/09 08:27:00;;;;;;;19.90;6.35;;;;;;;9.04;100.00;98292.66;5103462;28;20028;-71
2024/02/09 08:29:26;;;;;;;20.05;6.50;;;;;;;9.08;100.00;98294.28;5103394;28;20117;-72
2024/02/09 08:31:51;;;;;;;19.10;6.22;;;;;;;9.13;100.00;98293.28;5101659;28;20036;-71
2024/02/09 08:34:16;;;;;;;20.05;6.10;;;;;;;9.17;100.00;98294.91;5105008;28;20032;-72
2024/02/09 08:36:43;;;;;;;19.17;5.95;;;;;;;9.22;100.00;98283.34;5101195;28;20067;-71
2024/02/09 08:39:08;;;;;;;18.70;6.05;;;;;;;9.29;100.00;98284.03;5104260;28;20027;-71
2024/02/09 08:41:34;;;;;;;20.65;6.07;;;;;;;9.45;100.00;98284.41;5102472;28;20032;-72
2024/02/09 08:43:59;;;;;;;20.15;6.28;;;;;;;9.55;100.00;98277.91;5103069;28;20040;-72
2024/02/09 08:46:24;;;;;;;20.67;6.50;;;;;;;9.52;100.00;98282.41;5103486;28;20058;-72
2024/02/09 08:48:50;;;;;;;23.45;6.63;;;;;;;9.50;100.00;98278.97;5072080;28;20135;-72
2024/02/09 08:51:15;;;;;;;20.48;6.30;;;;;;;9.49;100.00;98293.91;5104473;28;20035;-71
2024/02/09 08:53:42;;;;;;;21.23;6.18;;;;;;;9.53;100.00;98305.25;5101148;28;20062;-72
2024/02/09 08:56:09;;;;;;;19.15;5.97;;;;;;;9.54;100.00;98294.66;5103980;28;20024;-71
2024/02/09 08:58:35;;;;;;;19.80;6.07;;;;;;;9.60;100.00;98297.06;5097898;28;20034;-76
2024/02/09 09:01:00;;;;;;;19.38;5.80;;;;;;;9.65;100.00;98291.66;5104659;28;20027;-76
2024/02/09 09:03:27;;;;;;;19.08;5.50;;;;;;;9.65;100.00;98302.19;5100922;28;20078;-76
2024/02/09 09:05:53;;;;;;;21.15;6.03;;;;;;;9.58;100.00;98303.31;5083509;28;20391;-76
2024/02/09 09:08:18;;;;;;;17.83;4.88;;;;;;;9.56;100.00;98294.59;5099567;28;20024;-73
2024/02/09 09:10:44;;;;;;;18.73;5.50;;;;;;;9.58;100.00;98303.31;5096469;28;20038;-75
2024/02/09 09:13:12;;;;;;;18.67;4.97;;;;;;;9.55;100.00;98303.41;5101429;28;20032;-75
2024/02/09 09:15:38;;;;;;;18.08;5.32;;;;;;;9.49;100.00;98293.91;5101581;28;20135;-75
2024/02/09 09:18:06;;;;;;;20.38;6.03;;;;;;;9.47;100.00;98293.09;5103948;28;20031;-78
2024/02/09 09:20:32;;;;;;;17.60;4.80;;;;;;;9.52;100.00;98306.16;5101815;28;20089;-76
2024/02/09 09:22:58;;;;;;;19.48;5.72;;;;;;;9.54;100.00;98299.91;5105067;28;20039;-77
2024/02/09 09:25:24;;;;;;;19.20;5.40;;;;;;;9.59;100.00;98295.34;5107471;28;20040;-75
2024/02/09 09:27:50;;;;;;;18.58;5.35;;;;;;;9.60;100.00;98293.59;5105761;28;20023;-71
2024/02/09 09:30:17;;;;;;;19.10;5.30;;;;;;;9.61;100.00;98295.31;5108347;28;20028;-76
2024/02/09 09:32:42;;;;;;;17.85;5.20;;;;;;;9.62;100.00;98301.44;5078608;28;20363;-75
2024/02/09 09:35:08;;;;;;;19.30;4.93;;;;;;;9.64;100.00;98303.13;5088498;28;20092;-76
2024/02/09 09:37:37;;;;;;;18.05;4.93;;;;;;;9.64;100.00;98295.22;5086997;28;20464;-76
2024/02/09 09:40:03;;;;;;;17.83;5.15;;;;;;;9.66;100.00;98297.81;5089100;28;20535;-77
2024/02/09 09:42:29;;;;;;;17.30;4.80;;;;;;;9.74;100.00;98301.91;5104389;28;20024;-77
2024/02/09 09:44:54;;;;;;;17.48;4.57;;;;;;;9.74;100.00;98299.28;5104600;28;20112;-75
2024/02/09 09:47:25;;;;;;;16.20;4.20;;;;;;;9.72;100.00;98298.44;5107202;28;20027;-74
2024/02/09 09:49:51;;;;;;;17.33;3.88;;;;;;;9.77;100.00;98301.81;5104621;28;20035;-76
2024/02/09 09:52:29;;;;;;;16.92;4.50;;;;;;;9.87;100.00;98301.50;5106804;28;20032;-76
2024/02/09 09:54:59;;;;;;;15.95;4.20;;;;;;;9.86;100.00;98302.41;5086072;28;20020;-75
2024/02/09 09:57:24;;;;;;;17.63;4.63;;;;;;;9.90;100.00;98296.13;5103967;28;20020;-73
2024/02/09 09:59:52;;;;;;;15.63;3.80;;;;;;;10.00;100.00;98301.97;5106843;28;20035;-73
2024/02/09 10:02:18;;;;;;;16.25;3.92;;;;;;;10.02;100.00;98302.75;5105126;28;20020;-76
2024/02/09 10:04:43;;;;;;;18.63;4.13;;;;;;;10.06;100.00;98307.03;5105888;28;20107;-73
2024/02/09 10:07:09;;;;;;;14.38;3.80;;;;;;;10.06;100.00;98314.94;5105924;28;20445;-76
2024/02/09 10:09:35;;;;;;;16.13;4.05;;;;;;;10.06;100.00;98307.91;5104748;28;20437;-76
2024/02/09 10:12:00;;;;;;;17.20;3.90;;;;;;;10.09;100.00;98313.06;5088827;28;20425;-76
2024/02/09 10:14:26;;;;;;;17.20;4.07;;;;;;;10.16;100.00;98312.88;5103643;28;20390;-72
2024/02/09 10:16:52;;;;;;;18.15;3.90;;;;;;;10.19;100.00;98313.59;5106925;28;20031;-71
2024/02/09 10:19:17;;;;;;;14.45;3.70;;;;;;;10.26;100.00;98323.03;5104529;28;20072;-71
2024/02/09 10:21:43;;;;;;;15.18;3.67;;;;;;;10.27;100.00;98316.84;5105880;28;20113;-72
2024/02/09 10:24:10;;;;;;;12.93;3.60;;;;;;;10.36;100.00;98320.13;5105745;28;20027;-72
2024/02/09 10:26:36;;;;;;;16.50;3.83;;;;;;;10.33;100.00;98321.06;5104301;28;20019;-72
2024/02/09 10:29:03;;;;;;;15.32;3.58;;;;;;;10.38;100.00;98313.88;5106767;28;20024;-71
2024/02/09 10:31:30;;;;;;;15.85;3.80;;;;;;;10.38;100.00;98315.66;5103005;28;20110;-71
2024/02/09 10:33:56;;;;;;;13.73;3.40;;;;;;;10.43;100.00;98322.50;5103099;28;20505;-72
2024/02/09 10:36:24;;;;;;;16.58;3.80;;;;;;;10.40;100.00;98319.13;5106661;28;20028;-72
2024/02/09 10:38:50;;;;;;;15.88;3.75;;;;;;;10.40;100.00;98322.59;5103807;28;20080;-72
2024/02/09 10:41:23;;;;;;;15.07;3.67;;;;;;;10.46;100.00;98329.47;5105701;28;20028;-72
2024/02/09 10:43:51;;;;;;;12.93;3.35;;;;;;;10.50;100.00;98323.16;5085597;28;20087;-72
2024/02/09 10:46:18;;;;;;;13.32;3.40;;;;;;;10.59;100.00;98321.97;5105916;28;20036;-72
2024/02/09 10:48:47;;;;;;;14.52;3.47;;;;;;;10.74;100.00;98321.41;5104519;28;20592;-71
2024/02/09 10:51:14;;;;;;;12.70;3.20;;;;;;;10.82;100.00;98319.34;5104679;28;20038;-72
2024/02/09 10:53:52;;;;;;;16.50;3.75;;;;;;;10.94;100.00;98327.75;5105447;28;20028;-72
2024/02/09 10:56:20;;;;;;;15.88;3.80;;;;;;;11.05;100.00;98324.69;5103735;28;20021;-72
2024/02/09 10:58:46;;;;;;;17.48;3.85;;;;;;;11.11;100.00;98335.91;5105712;28;20030;-72
2024/02/09 11:01:13;;;;;;;12.23;3.50;;;;;;;11.13;100.00;98331.41;5104022;28;20038;-76
2024/02/09 11:03:39;;;;;;;14.80;3.67;;;;;;;11.17;100.00;98326.88;5104961;28;20039;-76
2024/02/09 11:06:04;;;;;;;14.25;3.55;;;;;;;11.23;100.00;98323.16;5104947;28;20031;-77
2024/02/09 11:08:33;;;;;;;12.85;3.30;;;;;;;11.30;100.00;98324.59;5103574;28;20024;-77
2024/02/09 11:11:00;;;;;;;13.65;3.63;;;;;;;11.32;100.00;98317.50;5105725;28;20599;-76
2024/02/09 11:13:26;;;;;;;16.92;3.60;;;;;;;11.39;100.00;98316.34;5102601;28;20032;-76
2024/02/09 11:15:56;;;;;;;15.70;3.38;;;;;;;11.49;100.00;98330.94;5087935;28;20047;-75
2024/02/09 11:18:21;;;;;;;15.00;3.40;;;;;;;11.50;100.00;98319.44;5102700;28;20037;-75
2024/02/09 11:20:47;;;;;;;14.57;3.53;;;;;;;11.49;100.00;98315.06;5105485;28;20452;-75
2024/02/09 11:23:13;;;;;;;15.10;3.33;;;;;;;11.51;100.00;98322.94;5103476;28;20028;-74
2024/02/09 11:25:45;;;;;;;13.65;3.40;;;;;;;11.48;100.00;98337.13;5104304;28;20356;-76
2024/02/09 11:28:10;;;;;;;17.23;3.53;;;;;;;11.43;100.00;98325.88;5103781;28;20047;-76
2024/02/09 11:30:36;;;;;;;14.73;3.30;;;;;;;11.36;100.00;98334.09;5103674;28;20062;-76
2024/02/09 11:33:03;;;;;;;14.05;3.35;;;;;;;11.25;100.00;98326.59;5104863;28;20044;-76
2024/02/09 11:35:29;;;;;;;14.82;3.78;;;;;;;10.89;100.00;98333.22;5102631;28;20487;-76
2024/02/09 11:37:57;;;;;;;13.07;3.50;;;;;;;10.58;100.00;98346.66;5105641;28;20031;-75
2024/02/09 11:40:22;;;;;;;15.73;4.05;;;;;;;10.38;100.00;98348.22;5088064;28;20023;-72
2024/02/09 11:42:48;;;;;;;16.98;4.40;;;;;;;10.32;100.00;98358.09;5101687;28;20028;-72
2024/02/09 11:45:13;;;;;;;16.05;4.00;;;;;;;10.18;100.00;98355.91;5104301;28;20051;-72
2024/02/09 11:47:39;;;;;;;16.65;4.20;;;;;;;10.14;100.00;98351.66;5085466;28;20430;-72
2024/02/09 11:50:28;;;;;;;17.02;4.43;;;;;;;10.15;100.00;98361.28;5103123;28;20021;-72
2024/02/09 11:53:02;;;;;;;18.38;4.50;;;;;;;10.15;100.00;98362.16;5101838;28;20040;-72
2024/02/09 11:55:28;;;;;;;15.80;4.25;;;;;;;10.16;100.00;98358.59;5102106;28;20035;-71
2024/02/09 11:57:53;;;;;;;17.02;4.40;;;;;;;10.21;100.00;98364.59;5104987;28;20023;-72
2024/02/09 12:00:22;;;;;;;17.40;4.32;;;;;;;10.30;100.00;98364.28;5104801;28;20070;-72
2024/02/09 12:02:49;;;;;;;15.98;4.38;;;;;;;10.41;100.00;98361.31;5101863;28;20035;-72
2024/02/09 12:05:16;;;;;;;16.90;4.30;;;;;;;10.54;100.00;98360.88;5087100;28;20049;-72
2024/02/09 12:07:41;;;;;;;17.58;4.13;;;;;;;10.70;100.00;98354.13;5101599;28;20039;-72
2024/02/09 12:10:07;;;;;;;15.60;4.20;;;;;;;10.87;100.00;98352.69;5104246;28;20024;-72
2024/02/09 12:12:35;;;;;;;16.27;3.80;;;;;;;11.11;100.00;98345.59;5102821;28;20039;-72
2024/02/09 12:15:02;;;;;;;13.38;3.47;;;;;;;11.42;100.00;98347.97;5103255;28;20055;-72
2024/02/09 12:17:30;;;;;;;16.75;3.60;;;;;;;11.69;100.00;98329.25;5103166;28;20044;-72
2024/02/09 12:19:55;;;;;;;14.75;3.50;;;;;;;11.86;100.00;98318.00;5102711;28;20485;-71
2024/02/09 12:22:22;;;;;;;14.32;3.55;;;;;;;11.91;100.00;98316.03;5104233;28;20031;-72
2024/02/09 12:24:48;;;;;;;13.68;3.42;;;;;;;11.96;100.00;98313.22;5083435;28;20024;-71
2024/02/09 12:27:17;;;;;;;13.57;3.42;;;;;;;11.99;100.00;98319.25;5105063;28;20039;-72
2024/02/09 12:29:43;;;;;;;16.30;3.55;;;;;;;12.01;100.00;98308.59;5101197;28;20436;-72
2024/02/09 12:32:10;;;;;;;15.02;3.63;;;;;;;12.05;100.00;98314.63;5104438;28;20019;-72
2024/02/09 12:34:46;;;;;;;14.98;3.63;;;;;;;12.10;100.00;98308.22;5102257;28;20080;-72
2024/02/09 12:37:15;;;;;;;15.63;3.30;;;;;;;12.09;100.00;98313.59;5104827;28;20028;-72
2024/02/09 12:39:42;;;;;;;16.10;3.70;;;;;;;12.09;100.00;98317.09;5101517;28;20154;-76
2024/02/09 12:42:08;;;;;;;13.10;3.20;;;;;;;12.09;100.00;98322.38;5103884;28;20107;-76
2024/02/09 12:44:37;;;;;;;13.07;3.10;;;;;;;12.06;100.00;98319.88;5069606;28;20097;-76
2024/02/09 12:47:03;;;;;;;12.15;3.30;;;;;;;12.05;100.00;98317.28;5084445;28;20491;-77
2024/02/09 12:49:28;;;;;;;13.95;3.10;;;;;;;12.10;100.00;98320.59;5102508;28;20056;-76
2024/02/09 12:51:54;;;;;;;15.98;3.25;;;;;;;12.21;100.00;98319.19;5103821;28;20028;-75
2024/02/09 12:54:19;;;;;;;11.95;3.00;;;;;;;12.25;100.00;98327.03;5102712;28;20116;-76
2024/02/09 12:56:45;;;;;;;11.43;2.90;;;;;;;12.26;100.00;98334.91;5111308;28;20039;-76
2024/02/09 12:59:10;;;;;;;13.88;3.20;;;;;;;12.32;100.00;98325.81;5108097;28;20024;-72
2024/02/09 13:01:36;;;;;;;12.30;3.00;;;;;;;12.31;100.00;98318.81;5110327;28;20392;-75
2024/02/09 13:04:02;;;;;;;14.02;3.35;;;;;;;12.27;100.00;98326.03;5109146;28;20115;-72
2024/02/09 13:06:27;;;;;;;14.77;3.28;;;;;;;12.28;100.00;98313.66;5109016;28;20032;-75